Terminal Aerodrome Forecast
Issued by NWS Wilmington, OH

Current Version | Previous Version | Graphics & Text | Print | Product List | Glossary On
Versions: 1 2 3 4 5 6 7 8 9 10 11 12 13 14 15 16 17 18 19 20 21 22 23 24 25 26 27 28
000
FTUS41 KILN 010500 RRA
TAFCVG
TAF
KCVG 010543Z 0106/0212 11005KT 3SM -SN SCT025 OVC040
      TEMPO 0106/0109 1 1/2SM -SN BKN025
     FM010900 15005KT P6SM -SNPL SCT025 OVC040
     FM011200 18005KT 5SM -SNPL OVC025
     FM011800 23006KT 3SM -DZ OVC012
     FM012200 28006KT 3SM -SN OVC012
      TEMPO 0200/0203 1SM -SN OVC009
     FM020400 30009KT P6SM OVC012=

USA.gov is the U.S. government's official web portal to all federal, state and local government web resources and services.